createdAt,value
2023-06-15T00:00:08.319Z,15.39
2023-06-15T00:02:41.084Z,13.48
2023-06-15T00:05:10.468Z,15.28
2023-06-15T00:07:42.821Z,13.07
2023-06-15T00:10:11.422Z,14.35
2023-06-15T00:12:39.077Z,13.87
2023-06-15T00:15:09.597Z,13.76
2023-06-15T00:17:39.318Z,15.30
2023-06-15T00:20:14.515Z,14.99
2023-06-15T00:22:47.475Z,13.67
2023-06-15T00:25:16.968Z,15.10
2023-06-15T00:27:44.884Z,13.63
2023-06-15T00:30:13.636Z,15.26
2023-06-15T00:32:41.458Z,14.24
2023-06-15T00:35:09.382Z,13.56
2023-06-15T00:37:36.811Z,12.93
2023-06-15T00:40:09.940Z,15.12
2023-06-15T00:42:38.207Z,12.39
2023-06-15T00:45:07.564Z,13.51
2023-06-15T00:47:40.664Z,13.45
2023-06-15T00:50:15.990Z,15.05
2023-06-15T00:52:45.404Z,14.43
2023-06-15T00:55:16.738Z,14.92
2023-06-15T00:57:46.582Z,15.03
2023-06-15T01:00:16.156Z,15.08
2023-06-15T01:02:44.774Z,15.06
2023-06-15T01:05:19.285Z,12.84
2023-06-15T01:07:48.908Z,14.78
2023-06-15T01:10:19.898Z,14.82
2023-06-15T01:12:52.554Z,14.90
2023-06-15T01:15:21.513Z,13.39
2023-06-15T01:17:55.663Z,12.29
2023-06-15T01:20:28.905Z,14.87
2023-06-15T01:23:06.860Z,13.84
2023-06-15T01:25:46.338Z,15.00
2023-06-15T01:28:19.034Z,14.82
2023-06-15T01:30:49.644Z,13.44
2023-06-15T01:33:17.895Z,12.81
2023-06-15T01:35:48.987Z,13.36
2023-06-15T01:38:21.152Z,12.30
2023-06-15T01:40:51.322Z,14.68
2023-06-15T01:43:21.815Z,14.09
2023-06-15T01:45:51.281Z,13.43
2023-06-15T01:48:20.804Z,12.55
2023-06-15T01:50:51.700Z,14.54
2023-06-15T01:53:19.291Z,13.95
2023-06-15T01:55:47.691Z,13.12
2023-06-15T01:58:18.165Z,13.70
2023-06-15T02:00:46.360Z,14.70
2023-06-15T02:03:15.166Z,14.62
2023-06-15T02:05:43.677Z,14.39
2023-06-15T02:08:12.374Z,12.78
2023-06-15T02:10:40.591Z,13.70
2023-06-15T02:13:09.254Z,12.45
2023-06-15T02:15:38.123Z,12.24
2023-06-15T02:18:13.367Z,12.96
2023-06-15T02:20:43.214Z,14.44
2023-06-15T02:23:12.046Z,13.92
2023-06-15T02:25:39.882Z,14.29
2023-06-15T02:28:07.361Z,14.18
2023-06-15T02:30:37.026Z,13.76
2023-06-15T02:33:06.859Z,14.16
2023-06-15T02:35:34.333Z,12.80
2023-06-15T02:38:01.877Z,12.77
2023-06-15T02:40:29.006Z,13.65
2023-06-15T02:42:56.207Z,13.25
2023-06-15T02:45:23.326Z,12.82
2023-06-15T02:47:51.955Z,14.49
2023-06-15T02:50:19.374Z,14.24
2023-06-15T02:53:07.713Z,12.81
2023-06-15T02:55:35.097Z,12.83
2023-06-15T02:58:02.352Z,13.97
2023-06-15T03:01:02.173Z,13.87
2023-06-15T03:03:44.244Z,14.20
2023-06-15T03:06:12.013Z,13.85
2023-06-15T03:08:45.016Z,14.22
2023-06-15T03:11:24.452Z,13.58
2023-06-15T03:13:52.925Z,13.85
2023-06-15T03:16:20.197Z,14.06
2023-06-15T03:18:49.556Z,12.83
2023-06-15T03:21:17.144Z,13.11
2023-06-15T03:23:46.135Z,12.28
2023-06-15T03:26:15.165Z,12.86
2023-06-15T03:28:43.211Z,12.80
2023-06-15T03:31:18.708Z,12.10
2023-06-15T03:33:47.859Z,14.07
2023-06-15T03:36:20.029Z,12.30
2023-06-15T03:38:48.762Z,12.45
2023-06-15T03:41:16.276Z,14.29
2023-06-15T03:43:43.554Z,14.45
2023-06-15T03:46:10.728Z,13.47
2023-06-15T03:48:37.949Z,12.83
2023-06-15T03:51:06.438Z,14.34
2023-06-15T03:53:34.003Z,13.27
2023-06-15T03:56:01.338Z,13.08
2023-06-15T03:58:37.212Z,13.08
2023-06-15T04:01:08.598Z,12.86
2023-06-15T04:03:36.551Z,13.04
2023-06-15T04:06:05.670Z,13.08
2023-06-15T04:08:39.240Z,14.65
2023-06-15T04:11:08.441Z,12.66
2023-06-15T04:13:36.468Z,14.64
2023-06-15T04:16:07.595Z,12.50
2023-06-15T04:18:36.257Z,14.07
2023-06-15T04:21:04.024Z,13.54
2023-06-15T04:23:32.502Z,14.56
2023-06-15T04:26:02.011Z,13.93
2023-06-15T04:28:36.552Z,14.91
2023-06-15T04:31:13.883Z,14.25
2023-06-15T04:33:46.269Z,13.07
2023-06-15T04:36:15.330Z,14.17
2023-06-15T04:38:48.007Z,13.49
2023-06-15T04:41:23.832Z,13.57
2023-06-15T04:43:58.062Z,14.93
2023-06-15T04:46:26.146Z,15.03
2023-06-15T04:48:54.252Z,14.70
2023-06-15T04:51:25.267Z,15.12
2023-06-15T04:53:52.737Z,13.24
2023-06-15T04:56:22.628Z,13.85
2023-06-15T04:58:50.846Z,14.84
2023-06-15T05:01:18.790Z,15.04
2023-06-15T05:03:56.001Z,14.96
2023-06-15T05:06:24.077Z,15.56
2023-06-15T05:08:52.259Z,13.59
2023-06-15T05:11:21.473Z,13.86
2023-06-15T05:13:48.798Z,13.39
2023-06-15T05:16:16.159Z,14.21
2023-06-15T05:18:45.238Z,13.25
2023-06-15T05:21:13.729Z,15.57
2023-06-15T05:23:43.226Z,15.13
2023-06-15T05:26:21.099Z,15.77
2023-06-15T05:29:00.382Z,14.78
2023-06-15T05:31:30.699Z,16.17
2023-06-15T05:34:00.936Z,15.82
2023-06-15T05:36:43.202Z,16.16
2023-06-15T05:39:23.296Z,16.49
2023-06-15T05:41:52.177Z,15.90
2023-06-15T05:44:20.867Z,15.63
2023-06-15T05:46:50.567Z,15.00
2023-06-15T05:49:18.658Z,16.42
2023-06-15T05:51:48.873Z,14.50
2023-06-15T05:54:17.572Z,15.58
2023-06-15T05:56:45.051Z,15.18
2023-06-15T05:59:27.880Z,15.63
2023-06-15T06:02:08.326Z,17.14
2023-06-15T06:04:37.722Z,17.17
2023-06-15T06:07:08.670Z,17.36
2023-06-15T06:09:38.846Z,15.69
2023-06-15T06:12:07.968Z,16.21
2023-06-15T06:14:35.938Z,17.48
2023-06-15T06:17:03.520Z,17.11
2023-06-15T06:19:32.090Z,17.00
2023-06-15T06:22:01.050Z,16.84
2023-06-15T06:24:29.854Z,17.29
2023-06-15T06:26:59.848Z,18.32
2023-06-15T06:29:27.168Z,17.89
2023-06-15T06:31:54.453Z,18.28
2023-06-15T06:34:21.786Z,18.21
2023-06-15T06:36:49.155Z,18.64
2023-06-15T06:39:16.723Z,17.90
2023-06-15T06:41:44.071Z,17.02
2023-06-15T06:44:16.444Z,18.59
2023-06-15T06:46:46.137Z,18.15
2023-06-15T06:49:13.404Z,18.14
2023-06-15T06:51:40.688Z,17.52
2023-06-15T06:54:08.343Z,18.54
2023-06-15T06:56:40.623Z,19.14
2023-06-15T06:59:10.432Z,19.33
2023-06-15T07:01:38.925Z,18.11
2023-06-15T07:04:06.583Z,19.16
2023-06-15T07:06:36.285Z,19.67
2023-06-15T07:09:03.655Z,19.86
2023-06-15T07:11:33.096Z,18.17
2023-06-15T07:14:03.842Z,18.55
2023-06-15T07:16:31.780Z,19.23
2023-06-15T07:19:00.450Z,19.39
2023-06-15T07:21:27.728Z,18.13
2023-06-15T07:23:55.022Z,19.86
2023-06-15T07:26:22.769Z,19.84
2023-06-15T07:28:50.091Z,19.83
2023-06-15T07:31:17.354Z,20.08
2023-06-15T07:33:44.849Z,18.68
2023-06-15T07:36:12.277Z,19.57
2023-06-15T07:38:39.553Z,20.22
2023-06-15T07:41:06.681Z,19.01
2023-06-15T07:43:34.079Z,20.44
2023-06-15T07:46:01.546Z,18.67
2023-06-15T07:48:28.766Z,20.50
2023-06-15T07:50:55.954Z,20.51
2023-06-15T07:53:23.892Z,20.64
2023-06-15T07:55:51.801Z,19.87
2023-06-15T07:58:19.281Z,19.53
2023-06-15T08:00:46.639Z,20.01
2023-06-15T08:03:13.906Z,19.85
2023-06-15T08:05:41.335Z,20.30
2023-06-15T08:08:08.469Z,20.96
2023-06-15T08:10:36.552Z,20.80
2023-06-15T08:13:03.867Z,20.79
2023-06-15T08:15:32.257Z,19.45
2023-06-15T08:17:59.534Z,20.56
2023-06-15T08:20:27.734Z,20.48
2023-06-15T08:22:54.708Z,20.42
2023-06-15T08:25:22.694Z,19.94
2023-06-15T08:27:50.009Z,20.69
2023-06-15T08:30:17.698Z,19.83
2023-06-15T08:32:45.086Z,20.20
2023-06-15T08:35:12.546Z,20.69
2023-06-15T08:37:39.873Z,19.72
2023-06-15T08:40:09.525Z,20.64
2023-06-15T08:42:37.056Z,20.85
2023-06-15T08:45:09.950Z,20.35
2023-06-15T08:47:37.591Z,20.18
2023-06-15T08:50:06.420Z,19.20
2023-06-15T08:52:45.626Z,19.02
2023-06-15T08:55:17.425Z,20.02
2023-06-15T08:57:44.852Z,21.06
2023-06-15T09:00:12.609Z,21.06
2023-06-15T09:02:43.666Z,20.01
2023-06-15T09:05:11.105Z,20.58
2023-06-15T09:07:38.395Z,20.14
2023-06-15T09:10:14.597Z,20.99
2023-06-15T09:12:56.354Z,20.58
2023-06-15T09:15:25.812Z,19.88
2023-06-15T09:17:54.540Z,19.67
2023-06-15T09:20:27.230Z,20.77
2023-06-15T09:23:07.173Z,21.12
2023-06-15T09:25:34.918Z,20.34
2023-06-15T09:28:07.518Z,21.14
2023-06-15T09:30:35.881Z,21.28
2023-06-15T09:33:17.362Z,21.25
2023-06-15T09:36:05.055Z,20.95
2023-06-15T09:38:44.236Z,21.05
2023-06-15T09:41:12.484Z,21.21
2023-06-15T09:43:42.924Z,21.42
2023-06-15T09:46:17.976Z,21.40
2023-06-15T09:48:48.380Z,21.39
2023-06-15T09:51:21.980Z,20.48
2023-06-15T09:53:52.487Z,21.47
2023-06-15T09:56:30.439Z,21.00
2023-06-15T09:59:03.777Z,21.12
2023-06-15T10:01:37.007Z,21.66
2023-06-15T10:04:06.462Z,21.28
2023-06-15T10:06:42.189Z,19.81
2023-06-15T10:09:11.193Z,21.78
2023-06-15T10:11:43.006Z,21.78
2023-06-15T10:14:22.027Z,20.32
2023-06-15T10:16:55.143Z,21.79
2023-06-15T10:19:25.246Z,21.89
2023-06-15T10:21:54.039Z,21.64
2023-06-15T10:24:24.352Z,21.84
2023-06-15T10:26:52.263Z,20.91
2023-06-15T10:29:37.953Z,21.89
2023-06-15T10:32:19.255Z,21.55
2023-06-15T10:35:04.753Z,21.11
2023-06-15T10:38:17.247Z,21.87
2023-06-15T10:40:49.357Z,21.88
2023-06-15T10:43:21.201Z,21.48
2023-06-15T10:45:49.368Z,21.10
2023-06-15T10:48:28.299Z,21.74
2023-06-15T10:51:07.844Z,21.38
2023-06-15T10:53:41.150Z,21.89
2023-06-15T10:56:18.725Z,21.79
2023-06-15T10:59:06.947Z,20.59
2023-06-15T11:01:34.041Z,20.37
2023-06-15T11:04:02.951Z,21.50
2023-06-15T11:06:35.479Z,21.57
2023-06-15T11:09:26.271Z,21.55
2023-06-15T11:11:53.425Z,21.31
2023-06-15T11:14:20.549Z,21.67
2023-06-15T11:17:02.910Z,21.29
2023-06-15T11:19:31.593Z,21.27
2023-06-15T11:22:09.059Z,20.78
2023-06-15T11:24:39.335Z,21.10
2023-06-15T11:27:10.791Z,20.67
2023-06-15T11:29:42.455Z,21.78
2023-06-15T11:32:11.584Z,21.76
2023-06-15T11:34:40.571Z,21.76
2023-06-15T11:37:16.193Z,21.51
2023-06-15T11:39:46.215Z,21.72
2023-06-15T11:42:13.561Z,21.57
2023-06-15T11:44:42.636Z,21.78
2023-06-15T11:47:14.868Z,21.88
2023-06-15T11:49:42.378Z,20.93
2023-06-15T11:52:09.644Z,21.33
2023-06-15T11:54:51.755Z,21.42
2023-06-15T11:57:22.032Z,21.45
2023-06-15T11:59:49.729Z,21.64
2023-06-15T12:02:18.308Z,20.25
2023-06-15T12:04:48.050Z,20.73
2023-06-15T12:07:28.118Z,20.58
2023-06-15T12:10:04.739Z,21.82
2023-06-15T12:12:33.372Z,21.25
2023-06-15T12:15:06.542Z,21.72
2023-06-15T12:17:36.319Z,21.75
2023-06-15T12:20:12.727Z,21.44
2023-06-15T12:22:48.159Z,21.35
2023-06-15T12:25:16.326Z,21.60
2023-06-15T12:27:49.202Z,22.06
2023-06-15T12:30:19.228Z,20.53
2023-06-15T12:32:50.954Z,21.49
2023-06-15T12:35:43.000Z,22.07
2023-06-15T12:38:10.444Z,21.51
2023-06-15T12:40:41.428Z,21.64
2023-06-15T12:43:08.754Z,21.92
2023-06-15T12:45:36.927Z,21.95
2023-06-15T12:48:05.806Z,21.89
2023-06-15T12:50:33.102Z,20.78
2023-06-15T12:53:00.990Z,21.92
2023-06-15T12:55:29.595Z,21.47
2023-06-15T12:57:57.703Z,21.99
2023-06-15T13:00:26.864Z,21.66
2023-06-15T13:02:54.993Z,21.80
2023-06-15T13:05:22.924Z,21.78
2023-06-15T13:07:50.585Z,21.92
2023-06-15T13:10:18.613Z,21.99
2023-06-15T13:12:47.785Z,21.93
2023-06-15T13:15:14.840Z,22.05
2023-06-15T13:17:41.982Z,21.85
2023-06-15T13:20:10.474Z,21.91
2023-06-15T13:22:37.637Z,21.76
2023-06-15T13:25:06.030Z,21.78
2023-06-15T13:27:37.213Z,21.33
2023-06-15T13:30:09.532Z,21.78
2023-06-15T13:32:39.014Z,21.96
2023-06-15T13:35:07.492Z,21.60
2023-06-15T13:37:36.245Z,21.92
2023-06-15T13:40:07.910Z,21.38
2023-06-15T13:42:36.496Z,21.85
2023-06-15T13:45:09.378Z,21.93
2023-06-15T13:47:38.894Z,21.57
2023-06-15T13:50:07.262Z,21.86
2023-06-15T13:52:35.510Z,21.95
2023-06-15T13:55:07.066Z,21.89
2023-06-15T13:57:36.225Z,21.76
2023-06-15T14:02:41.983Z,21.99
2023-06-15T14:05:14.888Z,21.97
2023-06-15T14:07:42.495Z,21.90
2023-06-15T14:10:10.381Z,21.72
2023-06-15T14:12:37.788Z,21.61
2023-06-15T14:15:07.976Z,21.44
2023-06-15T14:17:35.240Z,21.65
2023-06-15T14:20:02.570Z,21.66
2023-06-15T14:22:31.770Z,21.35
2023-06-15T14:24:59.682Z,21.47
2023-06-15T14:27:26.816Z,21.74
2023-06-15T14:29:54.032Z,21.79
2023-06-15T14:32:21.607Z,21.88
2023-06-15T14:34:49.397Z,21.89
2023-06-15T14:37:17.887Z,21.76
2023-06-15T14:39:46.064Z,21.89
2023-06-15T14:42:15.842Z,21.59
2023-06-15T14:44:43.046Z,21.74
2023-06-15T14:47:10.141Z,21.45
2023-06-15T14:49:37.309Z,21.22
2023-06-15T14:52:04.899Z,21.55
2023-06-15T14:54:33.349Z,21.26
2023-06-15T14:57:00.626Z,21.43
2023-06-15T14:59:27.974Z,21.23
2023-06-15T15:01:55.440Z,21.31
2023-06-15T15:04:23.571Z,21.52
2023-06-15T15:06:52.317Z,21.08
2023-06-15T15:09:22.401Z,21.49
2023-06-15T15:11:49.535Z,21.58
2023-06-15T15:14:16.688Z,21.25
2023-06-15T15:16:43.861Z,21.53
2023-06-15T15:19:11.146Z,21.49
2023-06-15T15:21:38.294Z,21.32
2023-06-15T15:24:06.172Z,21.30
2023-06-15T15:26:33.590Z,21.21
2023-06-15T15:29:00.743Z,21.37
2023-06-15T15:31:27.873Z,21.29
2023-06-15T15:33:55.241Z,21.58
2023-06-15T15:36:22.487Z,21.22
2023-06-15T15:38:49.851Z,21.24
2023-06-15T15:41:17.762Z,21.24
2023-06-15T15:43:44.889Z,21.11
2023-06-15T15:46:12.116Z,20.98
2023-06-15T15:48:39.316Z,21.34
2023-06-15T15:51:08.301Z,21.02
2023-06-15T15:53:36.644Z,21.19
2023-06-15T15:56:11.690Z,20.70
2023-06-15T15:58:38.920Z,20.93
2023-06-15T16:01:17.209Z,20.82
2023-06-15T16:03:44.642Z,21.16
2023-06-15T16:06:11.902Z,21.14
2023-06-15T16:08:39.149Z,20.13
2023-06-15T16:11:06.396Z,19.90
2023-06-15T16:13:33.585Z,19.95
2023-06-15T16:16:20.944Z,20.35
2023-06-15T16:18:48.773Z,20.97
2023-06-15T16:21:16.136Z,20.27
2023-06-15T16:23:43.560Z,21.13
2023-06-15T16:26:10.822Z,19.91
2023-06-15T16:28:38.041Z,20.73
2023-06-15T16:31:05.364Z,19.60
2023-06-15T16:33:32.592Z,21.07
2023-06-15T16:35:59.884Z,20.65
2023-06-15T16:38:26.869Z,21.11
2023-06-15T16:40:53.968Z,20.99
2023-06-15T16:43:21.256Z,20.38
2023-06-15T16:45:48.422Z,20.97
2023-06-15T16:48:15.823Z,20.95
2023-06-15T16:50:42.924Z,20.96
2023-06-15T16:53:13.790Z,19.76
2023-06-15T16:55:42.434Z,19.55
2023-06-15T16:58:12.429Z,20.23
2023-06-15T17:00:40.184Z,20.67
2023-06-15T17:03:07.410Z,19.98
2023-06-15T17:05:34.674Z,20.71
2023-06-15T17:08:01.933Z,19.90
2023-06-15T17:10:29.091Z,19.78
2023-06-15T17:13:04.787Z,19.12
2023-06-15T17:15:31.963Z,19.62
2023-06-15T17:18:01.298Z,20.50
2023-06-15T17:20:28.805Z,20.70
2023-06-15T17:22:55.866Z,20.45
2023-06-15T17:25:22.955Z,20.57
2023-06-15T17:27:50.171Z,20.18
2023-06-15T17:30:20.124Z,20.51
2023-06-15T17:32:47.446Z,20.13
2023-06-15T17:35:14.702Z,20.40
2023-06-15T17:37:41.703Z,19.58
2023-06-15T17:40:09.382Z,20.44
2023-06-15T17:42:36.713Z,19.45
2023-06-15T17:45:05.498Z,20.29
2023-06-15T17:47:33.111Z,19.08
2023-06-15T17:50:00.441Z,18.50
2023-06-15T17:52:27.709Z,18.34
2023-06-15T17:54:56.786Z,20.20
2023-06-15T17:57:25.478Z,20.14
2023-06-15T17:59:53.966Z,19.81
2023-06-15T18:02:23.721Z,18.67
2023-06-15T18:04:51.760Z,19.88
2023-06-15T18:07:19.140Z,19.35
2023-06-15T18:09:46.335Z,18.35
2023-06-15T18:12:14.582Z,19.91
2023-06-15T18:14:41.873Z,17.89
2023-06-15T18:17:09.596Z,17.82
2023-06-15T18:19:37.572Z,17.92
2023-06-15T18:22:06.121Z,19.56
2023-06-15T18:24:33.904Z,19.61
2023-06-15T18:27:01.050Z,17.99
2023-06-15T18:29:28.380Z,19.70
2023-06-15T18:31:55.811Z,18.20
2023-06-15T18:34:23.062Z,18.76
2023-06-15T18:36:50.252Z,19.58
2023-06-15T18:39:19.005Z,18.93
2023-06-15T18:41:46.509Z,18.01
2023-06-15T18:44:13.721Z,17.74
2023-06-15T18:46:40.960Z,18.78
2023-06-15T18:49:08.192Z,19.37
2023-06-15T18:51:35.308Z,17.15
2023-06-15T18:54:02.866Z,17.74
2023-06-15T18:56:30.393Z,17.18
2023-06-15T18:58:57.852Z,19.02
2023-06-15T19:01:25.986Z,18.46
2023-06-15T19:03:53.276Z,18.65
2023-06-15T19:06:23.246Z,17.91
2023-06-15T19:08:50.534Z,19.16
2023-06-15T19:11:18.606Z,16.60
2023-06-15T19:13:45.824Z,18.84
2023-06-15T19:16:13.249Z,17.63
2023-06-15T19:18:43.982Z,18.15
2023-06-15T19:21:13.355Z,18.80
2023-06-15T19:23:44.540Z,18.01
2023-06-15T19:26:16.100Z,18.80
2023-06-15T19:28:44.418Z,16.74
2023-06-15T19:31:13.298Z,16.41
2023-06-15T19:33:40.528Z,18.02
2023-06-15T19:36:07.889Z,17.76
2023-06-15T19:38:38.116Z,17.98
2023-06-15T19:41:07.849Z,16.50
2023-06-15T19:43:36.873Z,18.81
2023-06-15T19:46:04.705Z,18.86
2023-06-15T19:48:34.510Z,18.04
2023-06-15T19:51:02.456Z,18.86
2023-06-15T19:53:35.391Z,17.81
2023-06-15T19:56:07.654Z,18.65
2023-06-15T19:58:35.582Z,17.27
2023-06-15T20:01:04.484Z,18.81
2023-06-15T20:03:33.883Z,18.69
2023-06-15T20:06:07.702Z,17.20
2023-06-15T20:08:37.942Z,18.60
2023-06-15T20:11:10.203Z,18.66
2023-06-15T20:13:40.542Z,18.64
2023-06-15T20:16:13.783Z,17.64
2023-06-15T20:18:45.087Z,18.00
2023-06-15T20:21:13.479Z,18.63
2023-06-15T20:23:41.136Z,18.39
2023-06-15T20:26:09.113Z,16.42
2023-06-15T20:28:38.617Z,15.93
2023-06-15T20:31:07.656Z,18.26
2023-06-15T20:33:39.004Z,16.13
2023-06-15T20:36:07.349Z,18.29
2023-06-15T20:38:37.249Z,18.26
2023-06-15T20:41:06.685Z,15.76
2023-06-15T20:43:34.224Z,17.72
2023-06-15T20:46:02.874Z,18.07
2023-06-15T20:48:34.088Z,16.84
2023-06-15T20:51:02.849Z,17.32
2023-06-15T20:53:30.183Z,16.08
2023-06-15T20:55:58.307Z,16.89
2023-06-15T20:58:26.263Z,16.52
2023-06-15T21:01:00.125Z,18.21
2023-06-15T21:03:29.956Z,15.87
2023-06-15T21:05:57.695Z,18.09
2023-06-15T21:08:26.982Z,17.06
2023-06-15T21:10:54.537Z,17.90
2023-06-15T21:13:22.931Z,17.86
2023-06-15T21:15:50.079Z,16.81
2023-06-15T21:18:17.454Z,17.99
2023-06-15T21:20:44.954Z,17.50
2023-06-15T21:23:12.372Z,17.09
2023-06-15T21:25:39.831Z,17.02
2023-06-15T21:28:16.927Z,16.49
2023-06-15T21:30:45.437Z,16.25
2023-06-15T21:33:12.666Z,16.22
2023-06-15T21:35:40.513Z,17.30
2023-06-15T21:38:08.377Z,16.91
2023-06-15T21:40:35.872Z,16.66
2023-06-15T21:43:02.998Z,17.99
2023-06-15T21:45:30.581Z,17.73
2023-06-15T21:47:57.854Z,18.02
2023-06-15T21:50:27.353Z,17.84
2023-06-15T21:52:59.633Z,17.40
2023-06-15T21:55:30.197Z,16.37
2023-06-15T21:57:58.858Z,18.03
2023-06-15T22:00:28.337Z,17.82
2023-06-15T22:02:55.845Z,16.65
2023-06-15T22:05:24.476Z,17.05
2023-06-15T22:07:52.567Z,17.59
2023-06-15T22:10:22.495Z,16.36
2023-06-15T22:12:49.950Z,17.59
2023-06-15T22:15:17.252Z,17.76
2023-06-15T22:17:44.797Z,16.65
2023-06-15T22:20:13.051Z,16.32
2023-06-15T22:22:40.438Z,17.33
2023-06-15T22:25:08.177Z,17.65
2023-06-15T22:27:35.785Z,16.50
2023-06-15T22:30:04.381Z,17.78
2023-06-15T22:32:31.907Z,16.47
2023-06-15T22:34:59.385Z,15.44
2023-06-15T22:37:27.284Z,15.59
2023-06-15T22:39:55.725Z,16.15
2023-06-15T22:42:22.995Z,15.21
2023-06-15T22:44:50.551Z,17.44
2023-06-15T22:47:20.578Z,15.58
2023-06-15T22:49:48.233Z,16.33
2023-06-15T22:52:16.811Z,16.01
2023-06-15T22:54:44.555Z,17.00
2023-06-15T22:57:13.680Z,17.36
2023-06-15T22:59:43.499Z,15.22
2023-06-15T23:02:12.539Z,17.35
2023-06-15T23:04:40.743Z,16.48
2023-06-15T23:07:15.262Z,17.11
2023-06-15T23:09:42.490Z,17.36
2023-06-15T23:12:13.510Z,17.46
2023-06-15T23:14:41.591Z,16.04
2023-06-15T23:17:09.497Z,17.04
2023-06-15T23:19:36.578Z,17.06
2023-06-15T23:22:07.195Z,17.05
2023-06-15T23:24:35.027Z,17.54
2023-06-15T23:27:04.232Z,17.29
2023-06-15T23:29:36.886Z,17.45
2023-06-15T23:32:05.476Z,17.40
2023-06-15T23:34:32.843Z,15.15
2023-06-15T23:37:01.139Z,17.42
2023-06-15T23:39:31.854Z,16.13
2023-06-15T23:41:59.448Z,17.02
2023-06-15T23:44:27.136Z,17.24
2023-06-15T23:46:54.546Z,15.50
2023-06-15T23:49:21.918Z,16.77
2023-06-15T23:51:49.566Z,16.21
2023-06-15T23:54:20.321Z,15.05
2023-06-15T23:56:47.646Z,15.43
2023-06-15T23:59:15.914Z,16.90
